sensor_id;sensor_type;location;lat;lon;timestamp;P1;durP1;ratioP1;P2;durP2;ratioP2
16115;SDS011;8162;47.104;15.432;2023-04-16T00:02:42;2.70;;;2.50;;
16115;SDS011;8162;47.104;15.432;2023-04-16T00:05:43;2.33;;;2.13;;
16115;SDS011;8162;47.104;15.432;2023-04-16T00:08:43;2.57;;;2.37;;
16115;SDS011;8162;47.104;15.432;2023-04-16T00:11:44;3.43;;;3.10;;
16115;SDS011;8162;47.104;15.432;2023-04-16T00:14:46;3.43;;;3.13;;
16115;SDS011;8162;47.104;15.432;2023-04-16T00:17:48;3.50;;;3.20;;
16115;SDS011;8162;47.104;15.432;2023-04-16T00:20:49;4.47;;;4.07;;
16115;SDS011;8162;47.104;15.432;2023-04-16T00:23:50;3.50;;;2.83;;
16115;SDS011;8162;47.104;15.432;2023-04-16T00:26:51;3.20;;;2.80;;
16115;SDS011;8162;47.104;15.432;2023-04-16T00:29:52;2.77;;;2.57;;
16115;SDS011;8162;47.104;15.432;2023-04-16T00:32:53;3.10;;;2.70;;
16115;SDS011;8162;47.104;15.432;2023-04-16T00:35:54;3.60;;;2.80;;
16115;SDS011;8162;47.104;15.432;2023-04-16T00:38:55;3.60;;;3.30;;
16115;SDS011;8162;47.104;15.432;2023-04-16T00:41:56;3.37;;;3.07;;
16115;SDS011;8162;47.104;15.432;2023-04-16T00:44:57;3.37;;;3.03;;
16115;SDS011;8162;47.104;15.432;2023-04-16T00:47:58;4.53;;;2.60;;
16115;SDS011;8162;47.104;15.432;2023-04-16T00:51:00;3.10;;;2.83;;
16115;SDS011;8162;47.104;15.432;2023-04-16T00:54:02;4.03;;;3.03;;
16115;SDS011;8162;47.104;15.432;2023-04-16T00:57:03;3.47;;;3.17;;
16115;SDS011;8162;47.104;15.432;2023-04-16T01:00:04;3.27;;;2.97;;
16115;SDS011;8162;47.104;15.432;2023-04-16T01:03:06;3.87;;;3.57;;
16115;SDS011;8162;47.104;15.432;2023-04-16T01:06:07;6.20;;;4.60;;
16115;SDS011;8162;47.104;15.432;2023-04-16T01:09:08;4.10;;;3.80;;
16115;SDS011;8162;47.104;15.432;2023-04-16T01:12:10;3.77;;;3.37;;
16115;SDS011;8162;47.104;15.432;2023-04-16T01:15:11;4.03;;;3.03;;
16115;SDS011;8162;47.104;15.432;2023-04-16T01:18:16;4.27;;;3.40;;
16115;SDS011;8162;47.104;15.432;2023-04-16T01:21:17;3.93;;;3.37;;
16115;SDS011;8162;47.104;15.432;2023-04-16T01:24:18;3.43;;;3.13;;
16115;SDS011;8162;47.104;15.432;2023-04-16T01:27:19;5.63;;;3.23;;
16115;SDS011;8162;47.104;15.432;2023-04-16T01:30:20;4.27;;;2.87;;
16115;SDS011;8162;47.104;15.432;2023-04-16T01:33:21;3.50;;;3.20;;
16115;SDS011;8162;47.104;15.432;2023-04-16T01:36:22;3.57;;;3.27;;
16115;SDS011;8162;47.104;15.432;2023-04-16T01:39:23;3.30;;;3.00;;
16115;SDS011;8162;47.104;15.432;2023-04-16T01:42:24;3.87;;;3.57;;
16115;SDS011;8162;47.104;15.432;2023-04-16T01:45:25;5.67;;;3.83;;
16115;SDS011;8162;47.104;15.432;2023-04-16T01:48:27;3.23;;;2.93;;
16115;SDS011;8162;47.104;15.432;2023-04-16T01:51:28;4.23;;;3.57;;
16115;SDS011;8162;47.104;15.432;2023-04-16T01:54:29;3.67;;;3.37;;
16115;SDS011;8162;47.104;15.432;2023-04-16T01:57:30;7.50;;;3.80;;
16115;SDS011;8162;47.104;15.432;2023-04-16T02:00:31;3.90;;;3.43;;
16115;SDS011;8162;47.104;15.432;2023-04-16T02:03:32;3.53;;;3.23;;
16115;SDS011;8162;47.104;15.432;2023-04-16T02:06:33;4.77;;;3.77;;
16115;SDS011;8162;47.104;15.432;2023-04-16T02:09:34;3.33;;;3.03;;
16115;SDS011;8162;47.104;15.432;2023-04-16T02:12:35;3.33;;;3.00;;
16115;SDS011;8162;47.104;15.432;2023-04-16T02:15:36;4.57;;;3.73;;
16115;SDS011;8162;47.104;15.432;2023-04-16T02:18:37;3.67;;;3.37;;
16115;SDS011;8162;47.104;15.432;2023-04-16T02:21:38;5.03;;;3.73;;
16115;SDS011;8162;47.104;15.432;2023-04-16T02:24:40;4.43;;;3.80;;
16115;SDS011;8162;47.104;15.432;2023-04-16T02:27:41;3.80;;;3.50;;
16115;SDS011;8162;47.104;15.432;2023-04-16T02:30:42;4.07;;;3.17;;
16115;SDS011;8162;47.104;15.432;2023-04-16T02:33:44;4.03;;;3.60;;
16115;SDS011;8162;47.104;15.432;2023-04-16T02:36:45;4.17;;;3.20;;
16115;SDS011;8162;47.104;15.432;2023-04-16T02:39:46;4.23;;;3.83;;
16115;SDS011;8162;47.104;15.432;2023-04-16T02:42:48;5.63;;;4.27;;
16115;SDS011;8162;47.104;15.432;2023-04-16T02:45:49;4.07;;;3.53;;
16115;SDS011;8162;47.104;15.432;2023-04-16T02:48:50;3.50;;;3.20;;
16115;SDS011;8162;47.104;15.432;2023-04-16T02:51:52;5.60;;;3.73;;
16115;SDS011;8162;47.104;15.432;2023-04-16T02:54:53;3.77;;;3.47;;
16115;SDS011;8162;47.104;15.432;2023-04-16T02:57:54;4.00;;;3.63;;
16115;SDS011;8162;47.104;15.432;2023-04-16T03:00:55;3.43;;;3.13;;
16115;SDS011;8162;47.104;15.432;2023-04-16T03:03:56;4.40;;;4.00;;
16115;SDS011;8162;47.104;15.432;2023-04-16T03:06:57;4.80;;;3.70;;
16115;SDS011;8162;47.104;15.432;2023-04-16T03:09:58;4.70;;;4.00;;
16115;SDS011;8162;47.104;15.432;2023-04-16T03:12:59;3.83;;;3.53;;
16115;SDS011;8162;47.104;15.432;2023-04-16T03:16:00;4.43;;;3.83;;
16115;SDS011;8162;47.104;15.432;2023-04-16T03:19:01;4.23;;;3.83;;
16115;SDS011;8162;47.104;15.432;2023-04-16T03:22:02;4.03;;;3.47;;
16115;SDS011;8162;47.104;15.432;2023-04-16T03:25:04;4.13;;;3.67;;
16115;SDS011;8162;47.104;15.432;2023-04-16T03:28:05;3.87;;;3.47;;
16115;SDS011;8162;47.104;15.432;2023-04-16T03:31:06;5.73;;;4.30;;
16115;SDS011;8162;47.104;15.432;2023-04-16T03:34:07;4.87;;;3.67;;
16115;SDS011;8162;47.104;15.432;2023-04-16T03:37:08;4.17;;;3.73;;
16115;SDS011;8162;47.104;15.432;2023-04-16T03:40:11;4.87;;;3.70;;
16115;SDS011;8162;47.104;15.432;2023-04-16T03:43:12;5.53;;;3.77;;
16115;SDS011;8162;47.104;15.432;2023-04-16T03:46:13;4.03;;;3.67;;
16115;SDS011;8162;47.104;15.432;2023-04-16T03:49:14;3.77;;;3.37;;
16115;SDS011;8162;47.104;15.432;2023-04-16T03:52:15;4.47;;;4.07;;
16115;SDS011;8162;47.104;15.432;2023-04-16T03:55:16;4.30;;;3.90;;
16115;SDS011;8162;47.104;15.432;2023-04-16T03:58:17;4.73;;;4.27;;
16115;SDS011;8162;47.104;15.432;2023-04-16T04:01:19;4.87;;;4.40;;
16115;SDS011;8162;47.104;15.432;2023-04-16T04:04:20;4.33;;;3.87;;
16115;SDS011;8162;47.104;15.432;2023-04-16T04:07:21;4.60;;;4.20;;
16115;SDS011;8162;47.104;15.432;2023-04-16T04:10:22;5.07;;;4.53;;
16115;SDS011;8162;47.104;15.432;2023-04-16T04:13:23;4.30;;;3.90;;
16115;SDS011;8162;47.104;15.432;2023-04-16T04:16:24;5.10;;;4.60;;
16115;SDS011;8162;47.104;15.432;2023-04-16T04:19:25;5.23;;;4.70;;
16115;SDS011;8162;47.104;15.432;2023-04-16T04:22:26;5.50;;;5.00;;
16115;SDS011;8162;47.104;15.432;2023-04-16T04:25:27;4.87;;;4.43;;
16115;SDS011;8162;47.104;15.432;2023-04-16T04:28:28;5.20;;;4.70;;
16115;SDS011;8162;47.104;15.432;2023-04-16T04:31:30;7.37;;;6.50;;
16115;SDS011;8162;47.104;15.432;2023-04-16T04:34:31;5.73;;;5.23;;
16115;SDS011;8162;47.104;15.432;2023-04-16T04:37:32;7.60;;;6.17;;
16115;SDS011;8162;47.104;15.432;2023-04-16T04:40:33;7.37;;;5.53;;
16115;SDS011;8162;47.104;15.432;2023-04-16T04:43:34;7.40;;;6.53;;
16115;SDS011;8162;47.104;15.432;2023-04-16T04:46:35;8.87;;;6.63;;
16115;SDS011;8162;47.104;15.432;2023-04-16T04:49:36;9.23;;;6.77;;
16115;SDS011;8162;47.104;15.432;2023-04-16T04:52:37;7.83;;;6.80;;
16115;SDS011;8162;47.104;15.432;2023-04-16T04:55:38;8.60;;;7.70;;
16115;SDS011;8162;47.104;15.432;2023-04-16T04:58:40;10.60;;;7.37;;
16115;SDS011;8162;47.104;15.432;2023-04-16T05:01:41;10.83;;;8.07;;
16115;SDS011;8162;47.104;15.432;2023-04-16T05:04:42;10.87;;;8.67;;
16115;SDS011;8162;47.104;15.432;2023-04-16T05:07:43;10.37;;;8.90;;
16115;SDS011;8162;47.104;15.432;2023-04-16T05:10:44;13.03;;;10.93;;
16115;SDS011;8162;47.104;15.432;2023-04-16T05:13:45;11.57;;;8.90;;
16115;SDS011;8162;47.104;15.432;2023-04-16T05:16:46;12.37;;;9.47;;
16115;SDS011;8162;47.104;15.432;2023-04-16T05:19:47;14.93;;;9.63;;
16115;SDS011;8162;47.104;15.432;2023-04-16T05:22:51;10.47;;;9.40;;
16115;SDS011;8162;47.104;15.432;2023-04-16T05:25:54;13.30;;;9.70;;
16115;SDS011;8162;47.104;15.432;2023-04-16T05:28:55;11.53;;;9.63;;
16115;SDS011;8162;47.104;15.432;2023-04-16T05:31:56;11.63;;;10.13;;
16115;SDS011;8162;47.104;15.432;2023-04-16T05:34:57;15.10;;;10.77;;
16115;SDS011;8162;47.104;15.432;2023-04-16T05:37:58;12.17;;;9.33;;
16115;SDS011;8162;47.104;15.432;2023-04-16T05:40:59;12.23;;;10.83;;
16115;SDS011;8162;47.104;15.432;2023-04-16T05:44:00;13.37;;;10.50;;
16115;SDS011;8162;47.104;15.432;2023-04-16T05:47:01;12.40;;;9.80;;
16115;SDS011;8162;47.104;15.432;2023-04-16T05:50:02;11.50;;;9.20;;
16115;SDS011;8162;47.104;15.432;2023-04-16T05:53:04;13.90;;;11.50;;
16115;SDS011;8162;47.104;15.432;2023-04-16T05:56:06;12.50;;;9.93;;
16115;SDS011;8162;47.104;15.432;2023-04-16T05:59:07;8.27;;;7.43;;
16115;SDS011;8162;47.104;15.432;2023-04-16T06:02:08;9.10;;;8.20;;
16115;SDS011;8162;47.104;15.432;2023-04-16T06:05:09;9.70;;;8.10;;
16115;SDS011;8162;47.104;15.432;2023-04-16T06:08:10;10.10;;;9.10;;
16115;SDS011;8162;47.104;15.432;2023-04-16T06:11:11;15.17;;;10.97;;
16115;SDS011;8162;47.104;15.432;2023-04-16T06:14:12;13.20;;;11.03;;
16115;SDS011;8162;47.104;15.432;2023-04-16T06:17:13;11.87;;;9.27;;
16115;SDS011;8162;47.104;15.432;2023-04-16T06:20:14;10.70;;;8.97;;
16115;SDS011;8162;47.104;15.432;2023-04-16T06:23:15;9.20;;;8.30;;
16115;SDS011;8162;47.104;15.432;2023-04-16T06:26:16;11.13;;;9.57;;
16115;SDS011;8162;47.104;15.432;2023-04-16T06:29:17;9.27;;;8.23;;
16115;SDS011;8162;47.104;15.432;2023-04-16T06:32:18;8.80;;;7.90;;
16115;SDS011;8162;47.104;15.432;2023-04-16T06:35:20;8.73;;;7.90;;
16115;SDS011;8162;47.104;15.432;2023-04-16T06:38:21;9.70;;;8.33;;
16115;SDS011;8162;47.104;15.432;2023-04-16T06:41:22;9.63;;;8.73;;
16115;SDS011;8162;47.104;15.432;2023-04-16T06:44:24;8.90;;;8.00;;
16115;SDS011;8162;47.104;15.432;2023-04-16T06:47:25;8.17;;;7.40;;
16115;SDS011;8162;47.104;15.432;2023-04-16T06:50:26;7.47;;;6.73;;
16115;SDS011;8162;47.104;15.432;2023-04-16T06:53:27;7.40;;;6.07;;
16115;SDS011;8162;47.104;15.432;2023-04-16T06:56:28;7.60;;;6.90;;
16115;SDS011;8162;47.104;15.432;2023-04-16T06:59:30;7.97;;;6.73;;
16115;SDS011;8162;47.104;15.432;2023-04-16T07:02:31;7.53;;;6.73;;
16115;SDS011;8162;47.104;15.432;2023-04-16T07:05:32;7.60;;;6.90;;
16115;SDS011;8162;47.104;15.432;2023-04-16T07:08:33;9.63;;;8.67;;
16115;SDS011;8162;47.104;15.432;2023-04-16T07:11:34;9.37;;;8.47;;
16115;SDS011;8162;47.104;15.432;2023-04-16T07:14:35;10.47;;;9.40;;
16115;SDS011;8162;47.104;15.432;2023-04-16T07:17:36;9.97;;;9.07;;
16115;SDS011;8162;47.104;15.432;2023-04-16T07:20:37;9.20;;;8.40;;
16115;SDS011;8162;47.104;15.432;2023-04-16T07:23:38;8.90;;;8.00;;
16115;SDS011;8162;47.104;15.432;2023-04-16T07:26:39;8.47;;;7.67;;
16115;SDS011;8162;47.104;15.432;2023-04-16T07:29:40;7.57;;;6.73;;
16115;SDS011;8162;47.104;15.432;2023-04-16T07:32:42;6.43;;;5.83;;
16115;SDS011;8162;47.104;15.432;2023-04-16T07:35:43;7.00;;;6.30;;
16115;SDS011;8162;47.104;15.432;2023-04-16T07:38:44;7.20;;;6.50;;
16115;SDS011;8162;47.104;15.432;2023-04-16T07:41:45;6.83;;;6.07;;
16115;SDS011;8162;47.104;15.432;2023-04-16T07:44:46;6.67;;;5.50;;
16115;SDS011;8162;47.104;15.432;2023-04-16T07:47:47;6.40;;;5.80;;
16115;SDS011;8162;47.104;15.432;2023-04-16T07:50:48;7.17;;;6.47;;
16115;SDS011;8162;47.104;15.432;2023-04-16T07:53:49;5.37;;;4.87;;
16115;SDS011;8162;47.104;15.432;2023-04-16T07:56:50;6.47;;;5.47;;
16115;SDS011;8162;47.104;15.432;2023-04-16T07:59:51;5.93;;;5.03;;
16115;SDS011;8162;47.104;15.432;2023-04-16T08:02:52;4.47;;;4.07;;
16115;SDS011;8162;47.104;15.432;2023-04-16T08:05:53;4.53;;;4.13;;
16115;SDS011;8162;47.104;15.432;2023-04-16T08:08:54;4.70;;;4.30;;
16115;SDS011;8162;47.104;15.432;2023-04-16T08:11:56;5.00;;;4.60;;
16115;SDS011;8162;47.104;15.432;2023-04-16T08:14:57;4.90;;;4.40;;
16115;SDS011;8162;47.104;15.432;2023-04-16T08:17:58;3.60;;;3.30;;
16115;SDS011;8162;47.104;15.432;2023-04-16T08:20:59;3.67;;;3.13;;
16115;SDS011;8162;47.104;15.432;2023-04-16T08:24:00;3.70;;;3.40;;
16115;SDS011;8162;47.104;15.432;2023-04-16T08:27:01;4.07;;;3.77;;
16115;SDS011;8162;47.104;15.432;2023-04-16T08:30:03;4.27;;;3.10;;
16115;SDS011;8162;47.104;15.432;2023-04-16T08:33:04;3.57;;;3.27;;
16115;SDS011;8162;47.104;15.432;2023-04-16T08:36:05;3.77;;;3.17;;
16115;SDS011;8162;47.104;15.432;2023-04-16T08:39:06;3.67;;;2.83;;
16115;SDS011;8162;47.104;15.432;2023-04-16T08:42:12;3.33;;;3.13;;
16115;SDS011;8162;47.104;15.432;2023-04-16T08:45:14;3.07;;;2.77;;
16115;SDS011;8162;47.104;15.432;2023-04-16T08:48:15;3.40;;;2.87;;
16115;SDS011;8162;47.104;15.432;2023-04-16T08:51:16;4.27;;;3.07;;
16115;SDS011;8162;47.104;15.432;2023-04-16T08:55:06;4.63;;;3.27;;
16115;SDS011;8162;47.104;15.432;2023-04-16T08:57:47;3.67;;;3.37;;
16115;SDS011;8162;47.104;15.432;2023-04-16T09:00:50;3.57;;;3.27;;
16115;SDS011;8162;47.104;15.432;2023-04-16T09:03:51;3.47;;;3.17;;
16115;SDS011;8162;47.104;15.432;2023-04-16T09:06:54;3.67;;;3.37;;
16115;SDS011;8162;47.104;15.432;2023-04-16T09:09:56;3.57;;;3.27;;
16115;SDS011;8162;47.104;15.432;2023-04-16T09:12:59;4.13;;;3.40;;
16115;SDS011;8162;47.104;15.432;2023-04-16T09:16:00;3.10;;;2.67;;
16115;SDS011;8162;47.104;15.432;2023-04-16T09:19:01;3.00;;;2.80;;
16115;SDS011;8162;47.104;15.432;2023-04-16T09:22:02;3.93;;;3.30;;
16115;SDS011;8162;47.104;15.432;2023-04-16T09:25:04;4.23;;;3.17;;
16115;SDS011;8162;47.104;15.432;2023-04-16T09:28:05;3.33;;;3.00;;
16115;SDS011;8162;47.104;15.432;2023-04-16T09:31:06;3.20;;;3.00;;
16115;SDS011;8162;47.104;15.432;2023-04-16T09:34:08;2.37;;;2.17;;
16115;SDS011;8162;47.104;15.432;2023-04-16T09:37:18;3.13;;;2.83;;
16115;SDS011;8162;47.104;15.432;2023-04-16T09:40:22;3.27;;;2.97;;
16115;SDS011;8162;47.104;15.432;2023-04-16T09:43:25;3.87;;;2.53;;
16115;SDS011;8162;47.104;15.432;2023-04-16T09:46:30;3.03;;;2.70;;
16115;SDS011;8162;47.104;15.432;2023-04-16T09:49:34;3.40;;;3.10;;
16115;SDS011;8162;47.104;15.432;2023-04-16T09:52:42;2.83;;;2.60;;
16115;SDS011;8162;47.104;15.432;2023-04-16T09:55:44;3.80;;;3.40;;
16115;SDS011;8162;47.104;15.432;2023-04-16T09:58:45;3.30;;;3.00;;
16115;SDS011;8162;47.104;15.432;2023-04-16T10:01:47;3.23;;;2.63;;
16115;SDS011;8162;47.104;15.432;2023-04-16T10:04:49;3.30;;;3.00;;
16115;SDS011;8162;47.104;15.432;2023-04-16T10:07:50;2.57;;;2.37;;
16115;SDS011;8162;47.104;15.432;2023-04-16T10:10:51;2.77;;;2.57;;
16115;SDS011;8162;47.104;15.432;2023-04-16T10:13:53;2.17;;;2.07;;
16115;SDS011;8162;47.104;15.432;2023-04-16T10:16:54;2.10;;;1.90;;
16115;SDS011;8162;47.104;15.432;2023-04-16T10:19:56;3.30;;;2.40;;
16115;SDS011;8162;47.104;15.432;2023-04-16T10:22:57;2.53;;;2.30;;
16115;SDS011;8162;47.104;15.432;2023-04-16T10:25:59;2.20;;;1.97;;
16115;SDS011;8162;47.104;15.432;2023-04-16T10:29:00;2.47;;;2.00;;
16115;SDS011;8162;47.104;15.432;2023-04-16T10:32:02;2.23;;;2.00;;
16115;SDS011;8162;47.104;15.432;2023-04-16T10:35:04;1.80;;;1.70;;
16115;SDS011;8162;47.104;15.432;2023-04-16T10:38:24;2.10;;;1.90;;
16115;SDS011;8162;47.104;15.432;2023-04-16T10:41:25;2.07;;;1.63;;
16115;SDS011;8162;47.104;15.432;2023-04-16T10:44:27;1.73;;;1.60;;
16115;SDS011;8162;47.104;15.432;2023-04-16T10:47:31;1.83;;;1.50;;
16115;SDS011;8162;47.104;15.432;2023-04-16T10:50:33;1.60;;;1.43;;
16115;SDS011;8162;47.104;15.432;2023-04-16T10:53:34;2.73;;;1.70;;
16115;SDS011;8162;47.104;15.432;2023-04-16T10:56:36;1.50;;;1.40;;
16115;SDS011;8162;47.104;15.432;2023-04-16T10:59:38;1.40;;;1.30;;
16115;SDS011;8162;47.104;15.432;2023-04-16T11:02:41;1.10;;;1.00;;
16115;SDS011;8162;47.104;15.432;2023-04-16T11:05:46;1.37;;;1.27;;
16115;SDS011;8162;47.104;15.432;2023-04-16T11:08:47;1.40;;;1.30;;
16115;SDS011;8162;47.104;15.432;2023-04-16T11:11:50;1.23;;;1.13;;
16115;SDS011;8162;47.104;15.432;2023-04-16T11:14:58;0.90;;;0.90;;
16115;SDS011;8162;47.104;15.432;2023-04-16T11:17:59;0.93;;;0.93;;
16115;SDS011;8162;47.104;15.432;2023-04-16T11:21:06;1.30;;;1.10;;
16115;SDS011;8162;47.104;15.432;2023-04-16T11:24:07;1.40;;;1.30;;
16115;SDS011;8162;47.104;15.432;2023-04-16T11:27:12;1.23;;;1.13;;
16115;SDS011;8162;47.104;15.432;2023-04-16T11:30:14;1.03;;;0.70;;
16115;SDS011;8162;47.104;15.432;2023-04-16T11:33:15;0.63;;;0.63;;
16115;SDS011;8162;47.104;15.432;2023-04-16T11:36:16;1.00;;;0.97;;
16115;SDS011;8162;47.104;15.432;2023-04-16T11:39:17;0.70;;;0.70;;
16115;SDS011;8162;47.104;15.432;2023-04-16T11:42:19;0.73;;;0.60;;
16115;SDS011;8162;47.104;15.432;2023-04-16T11:45:21;1.87;;;0.90;;
16115;SDS011;8162;47.104;15.432;2023-04-16T11:48:22;1.17;;;0.87;;
16115;SDS011;8162;47.104;15.432;2023-04-16T11:51:23;0.87;;;0.73;;
16115;SDS011;8162;47.104;15.432;2023-04-16T11:54:24;0.90;;;0.83;;
16115;SDS011;8162;47.104;15.432;2023-04-16T11:57:26;0.80;;;0.80;;
16115;SDS011;8162;47.104;15.432;2023-04-16T12:00:33;1.37;;;1.10;;
16115;SDS011;8162;47.104;15.432;2023-04-16T12:03:41;1.63;;;0.97;;
16115;SDS011;8162;47.104;15.432;2023-04-16T12:10:05;1.00;;;1.00;;
16115;SDS011;8162;47.104;15.432;2023-04-16T12:13:10;0.90;;;0.70;;
16115;SDS011;8162;47.104;15.432;2023-04-16T12:16:15;0.67;;;0.67;;
16115;SDS011;8162;47.104;15.432;2023-04-16T12:19:18;0.77;;;0.77;;
16115;SDS011;8162;47.104;15.432;2023-04-16T12:22:53;0.60;;;0.60;;
16115;SDS011;8162;47.104;15.432;2023-04-16T12:25:47;0.43;;;0.43;;
16115;SDS011;8162;47.104;15.432;2023-04-16T12:28:48;0.60;;;0.60;;
16115;SDS011;8162;47.104;15.432;2023-04-16T12:31:50;0.50;;;0.50;;
16115;SDS011;8162;47.104;15.432;2023-04-16T12:34:51;0.60;;;0.60;;
16115;SDS011;8162;47.104;15.432;2023-04-16T12:37:53;0.60;;;0.60;;
16115;SDS011;8162;47.104;15.432;2023-04-16T12:40:54;0.73;;;0.63;;
16115;SDS011;8162;47.104;15.432;2023-04-16T12:44:03;1.07;;;0.70;;
16115;SDS011;8162;47.104;15.432;2023-04-16T12:47:05;0.67;;;0.67;;
16115;SDS011;8162;47.104;15.432;2023-04-16T12:50:06;0.70;;;0.60;;
16115;SDS011;8162;47.104;15.432;2023-04-16T12:53:08;0.70;;;0.70;;
16115;SDS011;8162;47.104;15.432;2023-04-16T12:56:09;0.73;;;0.73;;
16115;SDS011;8162;47.104;15.432;2023-04-16T12:59:10;0.67;;;0.60;;
16115;SDS011;8162;47.104;15.432;2023-04-16T13:02:11;0.73;;;0.67;;
16115;SDS011;8162;47.104;15.432;2023-04-16T13:05:12;0.80;;;0.80;;
16115;SDS011;8162;47.104;15.432;2023-04-16T13:08:15;1.37;;;0.70;;
16115;SDS011;8162;47.104;15.432;2023-04-16T13:11:16;0.63;;;0.63;;
16115;SDS011;8162;47.104;15.432;2023-04-16T13:14:18;1.20;;;0.90;;
16115;SDS011;8162;47.104;15.432;2023-04-16T13:17:19;0.80;;;0.57;;
16115;SDS011;8162;47.104;15.432;2023-04-16T13:20:21;0.77;;;0.70;;
16115;SDS011;8162;47.104;15.432;2023-04-16T13:23:21;0.80;;;0.80;;
16115;SDS011;8162;47.104;15.432;2023-04-16T13:26:22;2.17;;;0.80;;
16115;SDS011;8162;47.104;15.432;2023-04-16T13:29:23;1.70;;;0.97;;
16115;SDS011;8162;47.104;15.432;2023-04-16T13:32:24;0.80;;;0.80;;
16115;SDS011;8162;47.104;15.432;2023-04-16T13:35:25;1.07;;;1.00;;
16115;SDS011;8162;47.104;15.432;2023-04-16T13:38:26;1.00;;;1.00;;
16115;SDS011;8162;47.104;15.432;2023-04-16T13:41:28;1.20;;;1.10;;
16115;SDS011;8162;47.104;15.432;2023-04-16T13:44:29;1.17;;;1.07;;
16115;SDS011;8162;47.104;15.432;2023-04-16T13:47:30;1.40;;;1.30;;
16115;SDS011;8162;47.104;15.432;2023-04-16T13:50:31;1.67;;;1.10;;
16115;SDS011;8162;47.104;15.432;2023-04-16T13:53:32;1.97;;;1.50;;
16115;SDS011;8162;47.104;15.432;2023-04-16T13:56:33;1.40;;;1.30;;
16115;SDS011;8162;47.104;15.432;2023-04-16T13:59:35;0.93;;;0.87;;
16115;SDS011;8162;47.104;15.432;2023-04-16T14:02:36;1.23;;;1.13;;
16115;SDS011;8162;47.104;15.432;2023-04-16T14:05:37;1.60;;;1.50;;
16115;SDS011;8162;47.104;15.432;2023-04-16T14:08:38;2.67;;;1.50;;
16115;SDS011;8162;47.104;15.432;2023-04-16T14:11:40;1.67;;;1.40;;
16115;SDS011;8162;47.104;15.432;2023-04-16T14:14:41;0.83;;;0.83;;
16115;SDS011;8162;47.104;15.432;2023-04-16T14:17:42;0.70;;;0.70;;
16115;SDS011;8162;47.104;15.432;2023-04-16T14:20:43;0.80;;;0.80;;
16115;SDS011;8162;47.104;15.432;2023-04-16T14:23:44;1.00;;;0.87;;
16115;SDS011;8162;47.104;15.432;2023-04-16T14:26:45;1.50;;;1.00;;
16115;SDS011;8162;47.104;15.432;2023-04-16T14:29:46;1.80;;;1.10;;
16115;SDS011;8162;47.104;15.432;2023-04-16T14:32:47;1.10;;;1.00;;
16115;SDS011;8162;47.104;15.432;2023-04-16T14:35:49;1.10;;;0.80;;
16115;SDS011;8162;47.104;15.432;2023-04-16T14:38:50;0.80;;;0.80;;
16115;SDS011;8162;47.104;15.432;2023-04-16T14:41:51;0.70;;;0.70;;
16115;SDS011;8162;47.104;15.432;2023-04-16T14:44:52;0.63;;;0.63;;
16115;SDS011;8162;47.104;15.432;2023-04-16T14:47:53;1.97;;;0.90;;
16115;SDS011;8162;47.104;15.432;2023-04-16T14:50:54;0.83;;;0.77;;
16115;SDS011;8162;47.104;15.432;2023-04-16T14:53:55;0.60;;;0.60;;
16115;SDS011;8162;47.104;15.432;2023-04-16T14:56:57;0.70;;;0.70;;
16115;SDS011;8162;47.104;15.432;2023-04-16T14:59:58;1.13;;;0.83;;
16115;SDS011;8162;47.104;15.432;2023-04-16T15:02:59;2.10;;;1.00;;
16115;SDS011;8162;47.104;15.432;2023-04-16T15:06:00;0.77;;;0.77;;
16115;SDS011;8162;47.104;15.432;2023-04-16T15:09:01;1.00;;;0.80;;
16115;SDS011;8162;47.104;15.432;2023-04-16T15:12:03;0.80;;;0.80;;
16115;SDS011;8162;47.104;15.432;2023-04-16T15:15:05;1.57;;;0.67;;
16115;SDS011;8162;47.104;15.432;2023-04-16T15:18:06;1.10;;;1.00;;
16115;SDS011;8162;47.104;15.432;2023-04-16T15:21:07;1.30;;;0.90;;
16115;SDS011;8162;47.104;15.432;2023-04-16T15:24:08;1.20;;;1.10;;
16115;SDS011;8162;47.104;15.432;2023-04-16T15:27:09;1.03;;;0.97;;
16115;SDS011;8162;47.104;15.432;2023-04-16T15:30:12;1.10;;;1.07;;
16115;SDS011;8162;47.104;15.432;2023-04-16T15:33:14;0.80;;;0.80;;
16115;SDS011;8162;47.104;15.432;2023-04-16T15:36:15;1.20;;;1.00;;
16115;SDS011;8162;47.104;15.432;2023-04-16T15:39:16;0.93;;;0.93;;
16115;SDS011;8162;47.104;15.432;2023-04-16T15:42:18;1.67;;;1.20;;
16115;SDS011;8162;47.104;15.432;2023-04-16T15:45:19;1.40;;;1.30;;
16115;SDS011;8162;47.104;15.432;2023-04-16T15:48:20;1.30;;;1.20;;
16115;SDS011;8162;47.104;15.432;2023-04-16T15:51:21;0.80;;;0.80;;
16115;SDS011;8162;47.104;15.432;2023-04-16T15:54:23;1.40;;;1.30;;
16115;SDS011;8162;47.104;15.432;2023-04-16T15:57:24;0.90;;;0.90;;
16115;SDS011;8162;47.104;15.432;2023-04-16T16:00:26;1.37;;;1.10;;
16115;SDS011;8162;47.104;15.432;2023-04-16T16:03:27;1.83;;;1.20;;
16115;SDS011;8162;47.104;15.432;2023-04-16T16:06:28;1.40;;;1.30;;
16115;SDS011;8162;47.104;15.432;2023-04-16T16:09:30;1.40;;;1.27;;
16115;SDS011;8162;47.104;15.432;2023-04-16T16:12:32;1.20;;;1.10;;
16115;SDS011;8162;47.104;15.432;2023-04-16T16:15:33;1.50;;;1.30;;
16115;SDS011;8162;47.104;15.432;2023-04-16T16:18:34;1.40;;;1.27;;
16115;SDS011;8162;47.104;15.432;2023-04-16T16:21:36;1.20;;;1.03;;
16115;SDS011;8162;47.104;15.432;2023-04-16T16:24:37;1.33;;;1.20;;
16115;SDS011;8162;47.104;15.432;2023-04-16T16:27:38;1.10;;;1.00;;
16115;SDS011;8162;47.104;15.432;2023-04-16T16:30:39;1.13;;;1.03;;
16115;SDS011;8162;47.104;15.432;2023-04-16T16:33:40;1.30;;;1.20;;
16115;SDS011;8162;47.104;15.432;2023-04-16T16:36:44;1.47;;;1.33;;
16115;SDS011;8162;47.104;15.432;2023-04-16T16:39:45;1.37;;;1.20;;
16115;SDS011;8162;47.104;15.432;2023-04-16T16:42:46;1.43;;;1.33;;
16115;SDS011;8162;47.104;15.432;2023-04-16T16:45:47;1.30;;;1.20;;
16115;SDS011;8162;47.104;15.432;2023-04-16T16:48:48;1.30;;;1.20;;
16115;SDS011;8162;47.104;15.432;2023-04-16T16:51:49;2.43;;;1.50;;
16115;SDS011;8162;47.104;15.432;2023-04-16T16:54:54;2.10;;;1.30;;
16115;SDS011;8162;47.104;15.432;2023-04-16T16:57:57;2.40;;;1.60;;
16115;SDS011;8162;47.104;15.432;2023-04-16T17:00:59;2.17;;;1.63;;
16115;SDS011;8162;47.104;15.432;2023-04-16T17:04:00;1.40;;;1.30;;
16115;SDS011;8162;47.104;15.432;2023-04-16T17:07:01;1.50;;;1.40;;
16115;SDS011;8162;47.104;15.432;2023-04-16T17:10:03;2.43;;;1.53;;
16115;SDS011;8162;47.104;15.432;2023-04-16T17:13:04;1.63;;;1.40;;
16115;SDS011;8162;47.104;15.432;2023-04-16T17:16:05;1.67;;;1.30;;
16115;SDS011;8162;47.104;15.432;2023-04-16T17:19:07;2.00;;;1.63;;
16115;SDS011;8162;47.104;15.432;2023-04-16T17:22:08;1.87;;;1.43;;
16115;SDS011;8162;47.104;15.432;2023-04-16T17:25:09;2.50;;;1.47;;
16115;SDS011;8162;47.104;15.432;2023-04-16T17:28:10;2.07;;;1.70;;
16115;SDS011;8162;47.104;15.432;2023-04-16T17:31:11;1.70;;;1.47;;
16115;SDS011;8162;47.104;15.432;2023-04-16T17:34:13;1.77;;;1.63;;
16115;SDS011;8162;47.104;15.432;2023-04-16T17:37:20;3.47;;;2.10;;
16115;SDS011;8162;47.104;15.432;2023-04-16T17:40:21;3.00;;;1.90;;
16115;SDS011;8162;47.104;15.432;2023-04-16T17:43:22;2.70;;;1.70;;
16115;SDS011;8162;47.104;15.432;2023-04-16T17:46:24;1.87;;;1.70;;
16115;SDS011;8162;47.104;15.432;2023-04-16T17:49:26;2.10;;;1.63;;
16115;SDS011;8162;47.104;15.432;2023-04-16T17:52:27;2.30;;;2.10;;
16115;SDS011;8162;47.104;15.432;2023-04-16T17:55:29;2.30;;;1.80;;
16115;SDS011;8162;47.104;15.432;2023-04-16T17:58:30;2.73;;;2.53;;
16115;SDS011;8162;47.104;15.432;2023-04-16T18:01:34;2.07;;;1.93;;
16115;SDS011;8162;47.104;15.432;2023-04-16T18:04:35;2.73;;;1.97;;
16115;SDS011;8162;47.104;15.432;2023-04-16T18:07:36;2.23;;;1.70;;
16115;SDS011;8162;47.104;15.432;2023-04-16T18:10:39;2.33;;;2.10;;
16115;SDS011;8162;47.104;15.432;2023-04-16T18:13:40;2.60;;;2.40;;
16115;SDS011;8162;47.104;15.432;2023-04-16T18:16:44;4.27;;;2.80;;